createdAt,value
2018-01-15T11:35:42.115Z,99.99
2018-01-15T11:36:42.011Z,99.41
2018-01-15T11:37:41.988Z,99.07
2018-01-15T11:38:41.977Z,99.99
2018-01-15T11:39:41.979Z,99.99
2018-01-15T11:40:41.975Z,99.99
2018-01-15T11:41:41.964Z,99.94
2018-01-15T11:42:41.965Z,98.97
2018-01-15T11:43:41.980Z,98.58
2018-01-15T11:44:41.957Z,98.68
2018-01-15T11:45:41.965Z,98.97
2018-01-15T11:46:41.941Z,99.26
2018-01-15T11:47:41.963Z,98.97
2018-01-15T11:48:42.103Z,98.68
2018-01-15T11:49:41.955Z,98.88
2018-01-15T11:50:41.950Z,98.30
2018-01-15T11:51:41.946Z,97.91
2018-01-15T11:52:41.942Z,97.57
2018-01-15T11:53:41.933Z,98.35
2018-01-15T11:54:41.934Z,96.70
2018-01-15T11:55:41.933Z,96.26
2018-01-15T11:56:41.926Z,95.97
2018-01-15T11:57:41.917Z,94.62
2018-01-15T11:58:41.911Z,95.34
2018-01-15T11:59:42.254Z,94.09
2018-01-15T12:00:41.911Z,94.09
2018-01-15T12:01:41.901Z,94.48
2018-01-15T12:02:41.902Z,94.38
2018-01-15T12:03:41.893Z,93.46
2018-01-15T12:04:41.890Z,94.18
2018-01-15T12:05:41.885Z,94.09
2018-01-15T12:06:41.887Z,93.75
2018-01-15T12:07:41.883Z,93.26
2018-01-15T12:08:41.922Z,92.78
2018-01-15T12:09:41.876Z,92.97
2018-01-15T12:10:41.871Z,91.91
2018-01-15T12:11:41.868Z,92.20
2018-01-15T12:12:41.865Z,91.62
2018-01-15T12:13:41.861Z,91.72
2018-01-15T12:14:41.857Z,92.10
2018-01-15T12:15:41.847Z,92.30
2018-01-15T12:16:41.830Z,91.42
2018-01-15T12:17:41.847Z,91.72
2018-01-15T12:18:41.836Z,91.62
2018-01-15T12:19:41.833Z,91.72
2018-01-15T12:20:41.817Z,91.52
2018-01-15T12:21:41.832Z,91.72
2018-01-15T12:22:41.809Z,91.72
2018-01-15T12:23:41.799Z,92.00
2018-01-15T12:24:41.802Z,91.91
2018-01-15T12:25:41.798Z,92.00
2018-01-15T12:26:41.795Z,91.91
2018-01-15T12:27:41.791Z,91.56
2018-01-15T12:28:41.786Z,90.80
2018-01-15T12:29:41.784Z,91.28
2018-01-15T12:30:41.781Z,91.38
2018-01-15T12:31:41.777Z,91.08
2018-01-15T12:32:41.774Z,90.80
2018-01-15T12:33:41.771Z,91.47
2018-01-15T12:34:41.766Z,91.86
2018-01-15T12:35:41.768Z,91.86
2018-01-15T12:36:41.761Z,91.56
2018-01-15T12:37:41.756Z,91.56
2018-01-15T12:38:41.759Z,91.56
2018-01-15T12:39:41.750Z,92.05
2018-01-15T12:40:41.747Z,91.91
2018-01-15T12:41:41.754Z,91.62
2018-01-15T12:42:41.739Z,91.82
2018-01-15T12:43:41.752Z,92.40
2018-01-15T12:44:41.734Z,91.52
2018-01-15T12:45:41.735Z,90.75
2018-01-15T12:46:41.734Z,90.56
2018-01-15T12:47:41.825Z,90.31
2018-01-15T12:48:41.724Z,89.78
2018-01-15T12:49:41.720Z,90.07
2018-01-15T12:50:41.705Z,90.36
2018-01-15T12:51:41.728Z,89.20
2018-01-15T12:52:41.706Z,89.97
2018-01-15T12:53:41.722Z,89.97
2018-01-15T12:54:41.702Z,90.07
2018-01-15T12:55:41.716Z,90.31
2018-01-15T12:56:41.712Z,88.57
2018-01-15T12:57:41.692Z,88.57
2018-01-15T12:58:41.679Z,88.18
2018-01-15T12:59:41.689Z,88.47
2018-01-15T13:00:41.682Z,88.95
2018-01-15T13:01:41.675Z,89.34
2018-01-15T13:02:41.675Z,89.34
2018-01-15T13:03:41.687Z,88.47
2018-01-15T13:04:41.684Z,87.79
2018-01-15T13:05:41.682Z,87.60
2018-01-15T13:06:41.677Z,87.99
2018-01-15T13:07:41.653Z,87.70
2018-01-15T13:08:41.651Z,88.57
2018-01-15T13:09:41.654Z,88.47
2018-01-15T13:10:41.648Z,88.71
2018-01-15T13:11:41.656Z,88.81
2018-01-15T13:12:41.660Z,88.71
2018-01-15T13:13:41.650Z,89.09
2018-01-15T13:14:41.648Z,89.09
2018-01-15T13:15:41.633Z,88.81
2018-01-15T13:16:41.630Z,89.39
2018-01-15T13:17:41.627Z,89.09
2018-01-15T13:18:41.619Z,89.09
2018-01-15T13:19:41.631Z,88.61
2018-01-15T13:20:41.613Z,89.19
2018-01-15T13:21:41.615Z,88.42
2018-01-15T13:22:41.611Z,89.34
2018-01-15T13:23:41.604Z,89.25
2018-01-15T13:24:41.606Z,89.73
2018-01-15T13:25:41.603Z,89.15
2018-01-15T13:26:41.594Z,89.44
2018-01-15T13:27:41.590Z,89.25
2018-01-15T13:28:41.589Z,88.90
2018-01-15T13:29:41.590Z,87.74
2018-01-15T13:30:41.586Z,87.84
2018-01-15T13:31:41.594Z,87.74
2018-01-15T13:32:41.576Z,87.74
2018-01-15T13:33:41.578Z,87.54
2018-01-15T13:34:41.585Z,86.63
2018-01-15T13:35:41.567Z,86.82
2018-01-15T13:36:41.583Z,87.02
2018-01-15T13:37:41.561Z,87.21
2018-01-15T13:38:41.572Z,87.31
2018-01-15T13:39:41.558Z,87.45
2018-01-15T13:40:41.567Z,87.45
2018-01-15T13:41:41.550Z,86.48
2018-01-15T13:42:41.564Z,87.02
2018-01-15T13:43:41.561Z,88.03
2018-01-15T13:44:41.554Z,87.64
2018-01-15T13:45:41.541Z,87.74
2018-01-15T13:46:41.536Z,87.26
2018-01-15T13:47:41.534Z,86.52
2018-01-15T13:48:41.531Z,86.43
2018-01-15T13:49:41.540Z,86.72
2018-01-15T13:50:41.525Z,85.46
2018-01-15T13:51:41.533Z,85.36
2018-01-15T13:52:41.535Z,84.49
2018-01-15T13:53:41.518Z,84.49
2018-01-15T13:54:41.533Z,84.72
2018-01-15T13:55:41.511Z,84.39
2018-01-15T13:56:41.509Z,84.00
2018-01-15T13:57:41.507Z,84.82
2018-01-15T13:58:41.509Z,84.24
2018-01-15T13:59:41.517Z,83.91
2018-01-15T14:00:41.499Z,85.51
2018-01-15T14:01:41.497Z,86.09
2018-01-15T14:02:41.504Z,85.90
2018-01-15T14:03:41.491Z,86.29
2018-01-15T14:04:41.489Z,86.77
2018-01-15T14:05:41.485Z,86.38
2018-01-15T14:06:41.497Z,86.29
2018-01-15T14:07:41.494Z,86.38
2018-01-15T14:08:41.493Z,86.13
2018-01-15T14:09:41.475Z,84.20
2018-01-15T14:10:41.487Z,84.49
2018-01-15T14:11:41.483Z,84.58
2018-01-15T14:12:41.461Z,83.13
2018-01-15T14:13:41.463Z,83.42
2018-01-15T14:14:41.455Z,84.00
2018-01-15T14:15:41.472Z,83.62
2018-01-15T14:16:41.454Z,83.91
2018-01-15T14:17:41.448Z,84.05
2018-01-15T14:18:41.448Z,83.37
2018-01-15T14:19:41.461Z,83.85
2018-01-15T14:20:41.443Z,83.56
2018-01-15T14:21:41.437Z,84.34
2018-01-15T14:22:41.454Z,84.14
2018-01-15T14:23:41.451Z,84.72
2018-01-15T14:24:41.453Z,83.85
2018-01-15T14:25:41.431Z,84.34
2018-01-15T14:26:41.439Z,83.95
2018-01-15T14:27:41.425Z,83.47
2018-01-15T14:28:41.434Z,82.59
2018-01-15T14:29:41.436Z,82.50
2018-01-15T14:30:41.418Z,83.56
2018-01-15T14:31:41.430Z,83.85
2018-01-15T14:32:41.410Z,83.85
2018-01-15T14:33:41.407Z,83.17
2018-01-15T14:34:41.459Z,83.02
2018-01-15T14:35:41.448Z,83.56
2018-01-15T14:36:41.404Z,83.37
2018-01-15T14:37:41.503Z,83.37
2018-01-15T14:38:41.410Z,83.75
2018-01-15T14:39:41.414Z,83.75
2018-01-15T14:40:41.410Z,83.70
2018-01-15T14:41:41.393Z,83.12
2018-01-15T14:42:41.401Z,82.92
2018-01-15T14:43:41.388Z,82.53
2018-01-15T14:44:41.386Z,81.95
2018-01-15T14:45:41.388Z,81.85
2018-01-15T14:46:41.395Z,81.95
2018-01-15T14:47:41.382Z,82.53
2018-01-15T14:48:41.373Z,82.44
2018-01-15T14:49:41.390Z,82.34
2018-01-15T14:50:41.372Z,81.99
2018-01-15T14:51:41.470Z,81.70
2018-01-15T14:52:41.381Z,82.24
2018-01-15T14:53:41.381Z,81.72
2018-01-15T14:54:41.378Z,81.95
2018-01-15T14:55:41.377Z,81.95
2018-01-15T14:56:41.375Z,82.73
2018-01-15T14:57:41.369Z,81.37
2018-01-15T14:58:41.349Z,81.41
2018-01-15T14:59:41.353Z,81.41
2018-01-15T15:00:41.367Z,80.83
2018-01-15T15:01:41.361Z,80.44
2018-01-15T15:02:41.362Z,80.54
2018-01-15T15:03:41.346Z,80.34
2018-01-15T15:04:41.340Z,81.12
2018-01-15T15:05:41.354Z,80.93
2018-01-15T15:06:41.336Z,80.58
2018-01-15T15:07:41.349Z,80.42
2018-01-15T15:08:41.334Z,79.74
2018-01-15T15:09:41.351Z,78.58
2018-01-15T15:10:41.334Z,78.67
2018-01-15T15:11:41.347Z,79.06
2018-01-15T15:12:41.342Z,78.67
2018-01-15T15:13:41.326Z,78.97
2018-01-15T15:14:41.324Z,78.71
2018-01-15T15:15:41.321Z,78.42
2018-01-15T15:16:41.327Z,79.49
2018-01-15T15:17:41.322Z,78.28
2018-01-15T15:18:41.334Z,79.16
2018-01-15T15:19:41.337Z,79.99
2018-01-15T15:20:41.317Z,80.29
2018-01-15T15:21:41.335Z,80.29
2018-01-15T15:22:41.314Z,80.19
2018-01-15T15:23:41.313Z,80.96
2018-01-15T15:24:41.329Z,81.06
2018-01-15T15:25:41.314Z,79.71
2018-01-15T15:26:41.328Z,78.64
2018-01-15T15:27:41.311Z,79.41
2018-01-15T15:28:41.325Z,80.38
2018-01-15T15:29:41.304Z,79.80
2018-01-15T15:30:41.306Z,79.41
2018-01-15T15:31:41.301Z,80.19
2018-01-15T15:32:41.304Z,80.48
2018-01-15T15:33:41.321Z,80.32
2018-01-15T15:34:41.312Z,80.19
2018-01-15T15:35:41.300Z,81.16
2018-01-15T15:36:41.295Z,81.06
2018-01-15T15:37:41.298Z,81.16
2018-01-15T15:38:41.296Z,81.65
2018-01-15T15:39:41.294Z,80.48
2018-01-15T15:40:41.289Z,79.61
2018-01-15T15:41:41.307Z,79.61
2018-01-15T15:42:41.305Z,80.29
2018-01-15T15:43:41.288Z,79.45
2018-01-15T15:44:41.302Z,79.74
2018-01-15T15:45:41.286Z,78.87
2018-01-15T15:46:41.295Z,77.64
2018-01-15T15:47:41.294Z,77.35
2018-01-15T15:48:41.282Z,76.97
2018-01-15T15:49:41.281Z,76.67
2018-01-15T15:50:41.279Z,76.38
2018-01-15T15:51:41.274Z,75.64
2018-01-15T15:52:41.288Z,75.41
2018-01-15T15:53:41.292Z,75.54
2018-01-15T15:54:41.290Z,75.84
2018-01-15T15:55:41.289Z,74.96
2018-01-15T15:56:41.289Z,75.74
2018-01-15T15:57:41.288Z,73.79
2018-01-15T15:58:41.282Z,72.82
2018-01-15T15:59:41.286Z,73.66
2018-01-15T16:00:41.270Z,73.46
2018-01-15T16:01:41.285Z,73.85
2018-01-15T16:02:41.384Z,73.85
2018-01-15T16:03:41.267Z,73.08
2018-01-15T16:04:41.282Z,73.18
2018-01-15T16:05:41.279Z,73.40
2018-01-15T16:06:41.265Z,72.04
2018-01-15T16:07:41.264Z,73.08
2018-01-15T16:08:41.279Z,73.85
2018-01-15T16:09:41.263Z,73.37
2018-01-15T16:10:41.277Z,73.66
2018-01-15T16:11:41.276Z,73.75
2018-01-15T16:12:41.271Z,73.75
2018-01-15T16:13:41.262Z,73.69
2018-01-15T16:14:41.253Z,73.50
2018-01-15T16:15:41.268Z,73.21
2018-01-15T16:16:41.267Z,73.93
2018-01-15T16:17:41.252Z,73.15
2018-01-15T16:18:41.269Z,72.92
2018-01-15T16:19:41.254Z,73.05
2018-01-15T16:20:41.254Z,72.17
2018-01-15T16:21:41.268Z,71.50
2018-01-15T16:22:41.266Z,71.01
2018-01-15T16:23:41.267Z,71.01
2018-01-15T16:24:41.267Z,70.91
2018-01-15T16:25:41.245Z,71.23
2018-01-15T16:26:41.248Z,71.92
2018-01-15T16:27:41.248Z,70.65
2018-01-15T16:28:41.259Z,69.29
2018-01-15T16:29:41.263Z,69.39
2018-01-15T16:30:41.247Z,69.97
2018-01-15T16:31:41.243Z,70.07
2018-01-15T16:32:41.247Z,69.55
2018-01-15T16:33:41.261Z,70.52
2018-01-15T16:34:41.260Z,70.62
2018-01-15T16:35:41.260Z,70.07
2018-01-15T16:36:41.246Z,70.36
2018-01-15T16:37:41.259Z,70.20
2018-01-15T16:38:41.259Z,70.20
2018-01-15T16:39:41.239Z,69.20
2018-01-15T16:40:41.243Z,69.58
2018-01-15T16:41:41.237Z,69.48
2018-01-15T16:42:41.248Z,69.55
2018-01-15T16:43:41.253Z,69.84
2018-01-15T16:44:41.257Z,71.01
2018-01-15T16:45:41.257Z,70.04
2018-01-15T16:46:41.241Z,70.04
2018-01-15T16:47:41.240Z,71.01
2018-01-15T16:48:41.240Z,70.91
2018-01-15T16:49:41.245Z,71.50
2018-01-15T16:50:41.238Z,70.62
2018-01-15T16:51:41.253Z,70.13
2018-01-15T16:52:41.253Z,69.55
2018-01-15T16:53:41.252Z,69.94
2018-01-15T16:54:41.236Z,70.04
2018-01-15T16:55:41.235Z,69.35
2018-01-15T16:56:41.246Z,68.29
2018-01-15T16:57:41.234Z,68.38
2018-01-15T16:58:41.257Z,68.67
2018-01-15T16:59:41.244Z,68.57
2018-01-15T17:00:41.251Z,68.48
2018-01-15T17:01:41.251Z,69.74
2018-01-15T17:02:41.237Z,68.71
2018-01-15T17:03:41.229Z,68.19
2018-01-15T17:04:41.226Z,67.83
2018-01-15T17:05:41.230Z,66.96
2018-01-15T17:06:41.247Z,67.41
2018-01-15T17:07:41.223Z,68.22
2018-01-15T17:08:41.227Z,67.73
2018-01-15T17:09:41.226Z,67.05
2018-01-15T17:10:41.221Z,66.37
2018-01-15T17:11:41.244Z,65.79
2018-01-15T17:12:41.244Z,65.59
2018-01-15T17:13:41.244Z,65.46
2018-01-15T17:14:41.243Z,65.85
2018-01-15T17:15:41.226Z,66.56
2018-01-15T17:16:41.242Z,66.96
2018-01-15T17:17:41.223Z,66.37
2018-01-15T17:18:41.220Z,66.08
2018-01-15T17:19:41.240Z,66.31
2018-01-15T17:20:41.220Z,65.72
2018-01-15T17:21:41.216Z,66.27
2018-01-15T17:22:41.219Z,66.11
2018-01-15T17:23:41.235Z,65.92
2018-01-15T17:24:41.238Z,65.63
2018-01-15T17:25:41.238Z,66.21
2018-01-15T17:26:41.233Z,65.53
2018-01-15T17:27:41.234Z,65.56
2018-01-15T17:28:41.233Z,64.87
2018-01-15T17:29:41.237Z,64.69
2018-01-15T17:30:41.237Z,62.44
2018-01-15T17:31:41.233Z,62.35
2018-01-15T17:32:41.229Z,61.96
2018-01-15T17:33:41.237Z,61.27
2018-01-15T17:34:41.236Z,61.47
2018-01-15T17:35:41.233Z,61.99
2018-01-15T17:36:41.233Z,61.89
2018-01-15T17:37:41.233Z,60.33
2018-01-15T17:38:41.232Z,60.20
2018-01-15T17:39:41.240Z,60.62
2018-01-15T17:40:41.238Z,60.72
2018-01-15T17:41:41.234Z,61.79
2018-01-15T17:42:41.233Z,59.26
2018-01-15T17:43:41.234Z,59.26
2018-01-15T17:44:41.230Z,58.48
2018-01-15T17:45:41.235Z,58.35
2018-01-15T17:46:41.238Z,58.15
2018-01-15T17:47:41.239Z,58.42
2018-01-15T17:48:41.235Z,59.00
2018-01-15T17:49:41.236Z,59.46
2018-01-15T17:50:41.234Z,59.78
2018-01-15T17:51:41.239Z,59.69
2018-01-15T17:52:41.236Z,60.46
2018-01-15T17:53:41.235Z,59.30
2018-01-15T17:54:41.241Z,60.27
2018-01-15T17:55:41.235Z,60.49
2018-01-15T17:56:41.231Z,60.49
2018-01-15T17:57:41.234Z,60.59
2018-01-15T17:58:41.219Z,60.98
2018-01-15T17:59:41.239Z,60.59
2018-01-15T18:00:41.235Z,60.78
2018-01-15T18:01:41.240Z,61.37
2018-01-15T18:02:41.215Z,62.63
2018-01-15T18:03:41.235Z,62.02
2018-01-15T18:04:41.237Z,63.19
2018-01-15T18:05:41.220Z,62.63
2018-01-15T18:06:41.239Z,63.02
2018-01-15T18:07:41.214Z,62.99
2018-01-15T18:08:41.220Z,63.39
2018-01-15T18:09:41.216Z,63.39
2018-01-15T18:10:41.244Z,64.17
2018-01-15T18:11:41.223Z,64.17
2018-01-15T18:12:41.239Z,64.17
2018-01-15T18:13:41.234Z,65.04
2018-01-15T18:14:41.218Z,64.84
2018-01-15T18:15:41.215Z,64.26
2018-01-15T18:16:41.239Z,63.51
2018-01-15T18:17:41.219Z,63.22
2018-01-15T18:18:41.238Z,63.71
2018-01-15T18:19:41.215Z,64.20
2018-01-15T18:20:41.219Z,63.71
2018-01-15T18:21:41.239Z,64.00
2018-01-15T18:22:41.219Z,63.32
2018-01-15T18:23:41.216Z,63.35
2018-01-15T18:24:41.220Z,63.25
2018-01-15T18:25:41.220Z,63.22
2018-01-15T18:26:41.239Z,63.71
2018-01-15T18:27:41.220Z,63.64
2018-01-15T18:28:41.220Z,63.45
2018-01-15T18:29:41.221Z,63.06
2018-01-15T18:30:41.240Z,63.64
2018-01-15T18:31:41.217Z,63.64
2018-01-15T18:32:41.218Z,63.15
2018-01-15T18:33:41.223Z,63.15
2018-01-15T18:34:41.240Z,63.15
2018-01-15T18:35:41.222Z,63.25
2018-01-15T18:36:41.237Z,63.32
2018-01-15T18:37:41.242Z,64.32
2018-01-15T18:38:41.223Z,64.62
2018-01-15T18:39:41.242Z,64.42
2018-01-15T18:40:41.243Z,64.62
2018-01-15T18:41:41.243Z,65.01
2018-01-15T18:42:41.220Z,64.62
2018-01-15T18:43:41.224Z,64.49
2018-01-15T18:44:41.245Z,64.81
2018-01-15T18:45:41.240Z,63.93
2018-01-15T18:46:41.225Z,64.72
2018-01-15T18:47:41.221Z,63.93
2018-01-15T18:48:41.268Z,64.72
2018-01-15T18:49:41.242Z,65.11
2018-01-15T18:50:41.223Z,64.52
2018-01-15T18:51:41.222Z,64.72
2018-01-15T18:52:41.243Z,65.20
2018-01-15T18:53:41.231Z,64.81
2018-01-15T18:54:41.243Z,64.81
2018-01-15T18:55:41.240Z,63.84
2018-01-15T18:56:41.244Z,64.29
2018-01-15T18:57:41.229Z,64.65
2018-01-15T18:58:41.229Z,64.94
2018-01-15T18:59:41.241Z,65.33
2018-01-15T19:00:41.242Z,65.23
2018-01-15T19:01:41.246Z,64.36
2018-01-15T19:02:41.230Z,65.14
2018-01-15T19:03:41.246Z,64.87
2018-01-15T19:04:41.248Z,65.07
2018-01-15T19:05:41.246Z,63.71
2018-01-15T19:06:41.242Z,64.59
2018-01-15T19:07:41.244Z,64.00
2018-01-15T19:08:41.247Z,63.81
2018-01-15T19:09:41.248Z,63.51
2018-01-15T19:10:41.247Z,63.71
2018-01-15T19:11:41.228Z,64.49
2018-01-15T19:12:41.243Z,63.81
2018-01-15T19:13:41.244Z,64.59
2018-01-15T19:14:41.276Z,64.87
2018-01-15T19:15:41.243Z,65.17
2018-01-15T19:16:41.229Z,64.81
2018-01-15T19:17:41.244Z,65.40
2018-01-15T19:18:41.229Z,64.62
2018-01-15T19:19:41.229Z,64.42
2018-01-15T19:20:41.229Z,63.64
2018-01-15T19:21:41.232Z,63.28
2018-01-15T19:22:41.230Z,63.54
2018-01-15T19:23:41.231Z,63.28
2018-01-15T19:24:41.232Z,62.86
2018-01-15T19:25:41.236Z,63.38
2018-01-15T19:26:41.236Z,63.09
2018-01-15T19:27:41.235Z,63.15
2018-01-15T19:28:41.238Z,63.74
2018-01-15T19:29:41.234Z,64.32
2018-01-15T19:30:41.234Z,62.96
2018-01-15T19:31:41.240Z,62.66
2018-01-15T19:32:41.236Z,63.35
2018-01-15T19:33:41.240Z,63.48
2018-01-15T19:34:41.236Z,62.99
2018-01-15T19:35:41.237Z,63.06
2018-01-15T19:36:41.238Z,62.60
2018-01-15T19:37:41.239Z,61.92
2018-01-15T19:38:41.243Z,61.53
2018-01-15T19:39:41.240Z,61.43
2018-01-15T19:40:41.245Z,61.33
2018-01-15T19:41:41.242Z,61.30
2018-01-15T19:42:41.243Z,61.40
2018-01-15T19:43:41.242Z,62.76
2018-01-15T19:44:41.246Z,62.08
2018-01-15T19:45:41.244Z,62.96
2018-01-15T19:46:41.247Z,62.86
2018-01-15T19:47:41.248Z,62.96
2018-01-15T19:48:41.244Z,62.28
2018-01-15T19:49:41.245Z,63.15
2018-01-15T19:50:41.245Z,63.45
2018-01-15T19:51:41.249Z,63.25
2018-01-15T19:52:41.247Z,63.54
2018-01-15T19:53:41.251Z,63.54
2018-01-15T19:54:41.246Z,63.74
2018-01-15T19:55:41.247Z,64.32
2018-01-15T19:56:41.248Z,63.71
2018-01-15T19:57:41.252Z,63.90
2018-01-15T19:58:41.248Z,63.42
2018-01-15T19:59:41.248Z,64.20
2018-01-15T20:00:41.249Z,64.00
2018-01-15T20:01:41.249Z,63.61
2018-01-15T20:02:41.249Z,63.71
2018-01-15T20:03:41.249Z,63.71
2018-01-15T20:04:41.249Z,64.29
2018-01-15T20:05:41.250Z,64.69
2018-01-15T20:06:41.249Z,64.59
2018-01-15T20:07:41.253Z,65.07
2018-01-15T20:08:41.248Z,64.78
2018-01-15T20:09:41.251Z,64.59
2018-01-15T20:10:41.250Z,64.78
2018-01-15T20:11:41.257Z,64.62
2018-01-15T20:12:41.250Z,64.39
2018-01-15T20:13:41.255Z,64.69
2018-01-15T20:14:41.271Z,64.81
2018-01-15T20:15:41.256Z,64.20
2018-01-15T20:16:41.267Z,64.87
2018-01-15T20:17:41.357Z,65.17
2018-01-15T20:18:41.252Z,65.11
2018-01-15T20:19:41.252Z,64.81
2018-01-15T20:20:41.265Z,64.52
2018-01-15T20:21:41.258Z,63.25
2018-01-15T20:22:41.251Z,63.42
2018-01-15T20:23:41.253Z,63.61
2018-01-15T20:24:41.284Z,63.42
2018-01-15T20:25:41.254Z,63.15
2018-01-15T20:26:41.274Z,63.54
2018-01-15T20:27:41.258Z,63.42
2018-01-15T20:28:41.270Z,63.93
2018-01-15T20:29:41.274Z,64.29
2018-01-15T20:30:41.311Z,63.74
2018-01-15T20:31:41.275Z,64.29
2018-01-15T20:32:41.275Z,63.84
2018-01-15T20:33:41.275Z,64.20
2018-01-15T20:34:41.271Z,64.69
2018-01-15T20:35:41.281Z,64.78
2018-01-15T20:36:41.280Z,64.87
2018-01-15T20:37:41.272Z,65.23
2018-01-15T20:38:41.276Z,65.72
2018-01-15T20:39:41.276Z,66.31
2018-01-15T20:40:41.277Z,66.41
2018-01-15T20:41:41.281Z,66.02
2018-01-15T20:46:10.982Z,66.02
2018-01-15T20:47:10.988Z,66.41
2018-01-15T20:48:10.984Z,66.31
2018-01-15T20:49:10.985Z,65.92
2018-01-15T20:50:10.989Z,66.11
2018-01-15T20:51:10.984Z,66.21
2018-01-15T20:52:10.988Z,65.92
2018-01-15T20:53:10.984Z,66.41
2018-01-15T20:54:10.965Z,66.31
2018-01-15T20:55:10.988Z,66.31
2018-01-15T20:56:10.964Z,67.18
2018-01-15T20:57:10.987Z,67.08
2018-01-15T20:58:10.991Z,67.08
2018-01-15T20:59:11.088Z,66.41
2018-01-15T21:00:10.983Z,66.99
2018-01-15T21:01:10.967Z,66.79
2018-01-15T21:02:10.973Z,67.47
2018-01-15T21:03:10.970Z,68.16
2018-01-15T21:04:10.968Z,67.67
2018-01-15T21:05:10.962Z,67.63
2018-01-15T21:06:10.963Z,67.54
2018-01-15T21:07:10.965Z,67.54
2018-01-15T21:08:10.968Z,67.54
2018-01-15T21:09:10.966Z,67.54
2018-01-15T21:10:10.965Z,67.35
2018-01-15T21:11:10.964Z,67.47
2018-01-15T21:12:10.960Z,67.83
2018-01-15T21:13:10.960Z,68.41
2018-01-15T21:14:10.960Z,68.41
2018-01-15T21:15:10.963Z,67.63
2018-01-15T21:16:10.958Z,68.90
2018-01-15T21:17:10.958Z,68.71
2018-01-15T21:18:10.962Z,68.90
2018-01-15T21:19:10.957Z,68.61
2018-01-15T21:20:10.960Z,68.90
2018-01-15T21:21:10.956Z,68.71
2018-01-15T21:22:10.956Z,68.61
2018-01-15T21:23:10.965Z,69.29
2018-01-15T21:24:10.960Z,69.26
2018-01-15T21:25:10.974Z,69.55
2018-01-15T21:26:10.969Z,69.84
2018-01-15T21:27:10.974Z,69.55
2018-01-15T21:28:10.957Z,69.84
2018-01-15T21:29:10.957Z,69.74
2018-01-15T21:30:10.952Z,69.35
2018-01-15T21:31:10.970Z,69.06
2018-01-15T21:32:10.951Z,69.65
2018-01-15T21:33:10.969Z,69.84
2018-01-15T21:34:10.970Z,69.84
2018-01-15T21:35:10.948Z,69.74
2018-01-15T21:36:10.963Z,69.84
2018-01-15T21:37:10.951Z,69.74
2018-01-15T21:38:10.950Z,69.84
2018-01-15T21:39:10.945Z,69.94
2018-01-15T21:40:10.945Z,69.55
2018-01-15T21:41:10.953Z,69.94
2018-01-15T21:42:10.963Z,69.65
2018-01-15T21:43:10.957Z,69.61
2018-01-15T21:44:10.957Z,69.74
2018-01-15T21:45:10.962Z,69.42
2018-01-15T21:46:10.945Z,69.61
2018-01-15T21:47:10.943Z,69.51
2018-01-15T21:48:10.958Z,70.00
2018-01-15T21:49:10.938Z,69.51
2018-01-15T21:50:11.010Z,70.00
2018-01-15T21:51:10.951Z,70.10
2018-01-15T21:52:10.954Z,70.58
2018-01-15T21:53:10.939Z,70.29
2018-01-15T21:54:10.934Z,70.39
2018-01-15T21:55:10.932Z,70.29
2018-01-15T21:56:10.935Z,70.10
2018-01-15T21:57:10.930Z,70.20
2018-01-15T21:58:10.949Z,70.58
2018-01-15T21:59:11.028Z,70.58
2018-01-15T22:00:10.927Z,70.87
2018-01-15T22:01:10.926Z,71.36
2018-01-15T22:02:11.246Z,71.07
2018-01-15T22:03:10.923Z,71.07
2018-01-15T22:04:10.939Z,70.68
2018-01-15T22:05:10.927Z,70.49
2018-01-15T22:06:10.937Z,70.97
2018-01-15T22:07:10.936Z,70.87
2018-01-15T22:08:10.931Z,71.07
2018-01-15T22:09:10.924Z,71.46
2018-01-15T22:10:10.918Z,71.46
2018-01-15T22:11:10.917Z,71.26
2018-01-15T22:12:10.920Z,70.87
2018-01-15T22:13:10.915Z,70.58
2018-01-15T22:14:10.930Z,70.68
2018-01-15T22:15:10.928Z,71.56
2018-01-15T22:16:10.927Z,71.66
2018-01-15T22:17:10.928Z,71.72
2018-01-15T22:18:10.930Z,71.42
2018-01-15T22:19:10.924Z,71.17
2018-01-15T22:20:10.923Z,71.23
2018-01-15T22:21:10.922Z,71.46
2018-01-15T22:22:10.926Z,71.46
2018-01-15T22:23:10.919Z,71.03
2018-01-15T22:24:10.923Z,71.46
2018-01-15T22:25:10.923Z,71.81
2018-01-15T22:26:10.917Z,71.46
2018-01-15T22:27:10.919Z,71.72
2018-01-15T22:28:10.919Z,71.72
2018-01-15T22:29:10.913Z,71.66
2018-01-15T22:30:10.917Z,71.91
2018-01-15T22:31:10.916Z,72.39
2018-01-15T22:32:10.910Z,71.42
2018-01-15T22:33:10.910Z,71.81
2018-01-15T22:34:10.908Z,71.85
2018-01-15T22:35:10.906Z,71.94
2018-01-15T22:36:10.910Z,71.62
2018-01-15T22:37:10.905Z,72.20
2018-01-15T22:38:10.907Z,72.39
2018-01-15T22:39:10.902Z,72.30
2018-01-15T22:40:10.901Z,72.39
2018-01-15T22:41:10.900Z,72.39
2018-01-15T22:42:10.899Z,72.01
2018-01-15T22:43:10.902Z,72.69
2018-01-15T22:44:10.896Z,72.98
2018-01-15T22:45:10.896Z,72.98
2018-01-15T22:46:10.895Z,72.01
2018-01-15T22:47:10.898Z,71.91
2018-01-15T22:48:10.896Z,73.18
2018-01-15T22:49:10.891Z,72.69
2018-01-15T22:50:10.918Z,72.98
2018-01-15T22:51:10.892Z,73.85
2018-01-15T22:52:10.887Z,73.37
2018-01-15T22:53:10.890Z,73.66
2018-01-15T22:54:10.885Z,73.27
2018-01-15T22:55:10.889Z,73.37
2018-01-15T22:56:10.887Z,72.98
2018-01-15T22:57:10.886Z,73.27
2018-01-15T22:58:10.885Z,73.27
2018-01-15T22:59:10.883Z,73.27
2018-01-15T23:00:10.882Z,73.46
2018-01-15T23:01:10.887Z,73.56
2018-01-15T23:02:10.880Z,73.18
2018-01-15T23:03:10.878Z,72.98
2018-01-15T23:04:10.877Z,73.27
2018-01-15T23:05:10.876Z,72.98
2018-01-15T23:06:10.875Z,72.88
2018-01-15T23:07:10.874Z,72.59
2018-01-15T23:08:10.873Z,73.18
2018-01-15T23:09:10.871Z,73.46
2018-01-15T23:10:10.870Z,72.59
2018-01-15T23:11:10.869Z,73.18
2018-01-15T23:12:10.868Z,72.88
2018-01-15T23:13:10.866Z,73.37
2018-01-15T23:14:10.866Z,73.27
2018-01-15T23:15:10.865Z,73.08
2018-01-15T23:16:10.862Z,73.08
2018-01-15T23:17:10.861Z,73.18
2018-01-15T23:18:10.860Z,72.88
2018-01-15T23:19:10.859Z,72.78
2018-01-15T23:20:10.848Z,72.30
2018-01-15T23:21:10.847Z,72.69
2018-01-15T23:22:10.856Z,73.08
2018-01-15T23:23:10.853Z,73.08
2018-01-15T23:24:10.853Z,72.85
2018-01-15T23:25:10.853Z,72.59
2018-01-15T23:26:10.841Z,72.98
2018-01-15T23:27:10.849Z,73.08
2018-01-15T23:28:10.847Z,72.88
2018-01-15T23:29:10.846Z,73.27
2018-01-15T23:30:10.845Z,72.39
2018-01-15T23:31:10.834Z,72.39
2018-01-15T23:32:10.833Z,72.75
2018-01-15T23:33:10.839Z,72.07
2018-01-15T23:34:10.840Z,72.30
2018-01-15T23:35:10.835Z,72.39
2018-01-15T23:36:10.832Z,72.36
2018-01-15T23:37:10.831Z,71.91
2018-01-15T23:38:10.830Z,70.61
2018-01-15T23:39:10.828Z,70.81
2018-01-15T23:40:10.831Z,71.58
2018-01-15T23:41:10.826Z,71.20
2018-01-15T23:42:10.828Z,70.61
2018-01-15T23:43:10.826Z,70.51
2018-01-15T23:44:10.826Z,70.51
2018-01-15T23:45:10.824Z,70.42
2018-01-15T23:46:10.825Z,70.32
2018-01-15T23:47:10.917Z,70.42
2018-01-15T23:48:10.820Z,71.00
2018-01-15T23:49:10.809Z,70.71
2018-01-15T23:50:10.814Z,71.00
2018-01-15T23:51:10.815Z,71.48
2018-01-15T23:52:10.814Z,71.68
2018-01-15T23:53:10.809Z,71.58
2018-01-15T23:54:10.812Z,71.48
2018-01-15T23:55:10.810Z,71.29
2018-01-15T23:56:10.799Z,71.20
2018-01-15T23:57:10.809Z,71.00
2018-01-15T23:58:10.802Z,71.78
2018-01-15T23:59:10.800Z,71.29
